createdAt,value
2022-11-12T00:03:47.556Z,4.42
2022-11-12T00:08:50.603Z,4.46
2022-11-12T00:13:54.528Z,4.43
2022-11-12T00:18:58.844Z,4.49
2022-11-12T00:24:02.183Z,4.53
2022-11-12T00:29:05.261Z,4.42
2022-11-12T00:34:08.788Z,4.34
2022-11-12T00:39:12.050Z,4.17
2022-11-12T00:44:15.614Z,4.04
2022-11-12T00:49:18.829Z,3.91
2022-11-12T00:54:22.005Z,3.82
2022-11-12T00:59:25.126Z,3.83
2022-11-12T01:04:28.348Z,3.93
2022-11-12T01:09:35.765Z,3.91
2022-11-12T01:14:38.957Z,3.87
2022-11-12T01:19:42.048Z,4.00
2022-11-12T01:24:45.179Z,4.03
2022-11-12T01:29:48.276Z,4.01
2022-11-12T01:34:51.401Z,4.02
2022-11-12T01:39:56.193Z,4.03
2022-11-12T01:44:59.364Z,4.07
2022-11-12T01:50:02.656Z,3.95
2022-11-12T01:55:05.946Z,3.92
2022-11-12T02:00:09.148Z,3.96
2022-11-12T02:05:12.405Z,3.87
2022-11-12T02:10:15.798Z,3.67
2022-11-12T02:15:18.922Z,3.52
2022-11-12T02:20:21.980Z,3.36
2022-11-12T02:25:25.580Z,3.30
2022-11-12T02:30:28.667Z,3.32
2022-11-12T02:35:32.466Z,3.35
2022-11-12T02:40:35.736Z,3.38
2022-11-12T02:45:38.834Z,3.28
2022-11-12T02:50:42.077Z,3.24
2022-11-12T02:55:45.275Z,3.27
2022-11-12T03:00:48.635Z,3.11
2022-11-12T03:05:51.878Z,2.98
2022-11-12T03:10:54.936Z,2.74
2022-11-12T03:15:58.025Z,2.60
2022-11-12T03:21:01.154Z,2.56
2022-11-12T03:26:04.308Z,2.52
2022-11-12T03:31:08.178Z,2.53
2022-11-12T03:36:12.142Z,2.55
2022-11-12T03:41:15.384Z,2.49
2022-11-12T03:46:18.539Z,2.36
2022-11-12T03:51:22.565Z,2.37
2022-11-12T03:56:26.710Z,2.24
2022-11-12T04:01:31.755Z,2.13
2022-11-12T04:06:52.704Z,2.02
2022-11-12T04:12:15.970Z,1.95
2022-11-12T04:17:36.863Z,1.97
2022-11-12T04:22:40.201Z,2.00
2022-11-12T04:27:43.357Z,2.11
2022-11-12T04:32:46.434Z,2.06
2022-11-12T04:37:51.720Z,2.11
2022-11-12T04:43:12.740Z,2.19
2022-11-12T04:48:15.838Z,2.31
2022-11-12T04:53:18.970Z,2.40
2022-11-12T04:58:22.113Z,2.39
2022-11-12T05:03:25.283Z,2.38
2022-11-12T05:08:28.853Z,2.26
2022-11-12T05:13:32.252Z,2.33
2022-11-12T05:18:35.407Z,2.51
2022-11-12T05:23:38.601Z,2.38
2022-11-12T05:28:41.645Z,2.45
2022-11-12T05:33:45.410Z,2.51
2022-11-12T05:38:48.559Z,2.59
2022-11-12T05:43:51.695Z,2.65
2022-11-12T05:48:54.905Z,2.69
2022-11-12T05:53:58.011Z,2.64
2022-11-12T05:59:01.123Z,2.48
2022-11-12T06:04:04.192Z,2.48
2022-11-12T06:09:07.280Z,2.65
2022-11-12T06:14:10.687Z,2.61
2022-11-12T06:19:14.296Z,2.56
2022-11-12T06:24:17.653Z,2.83
2022-11-12T06:29:20.691Z,2.86
2022-11-12T06:34:23.974Z,2.92
2022-11-12T06:39:27.537Z,2.89
2022-11-12T06:44:30.956Z,3.12
2022-11-12T06:49:34.359Z,3.31
2022-11-12T06:54:38.887Z,3.43
2022-11-12T06:59:42.196Z,3.48
2022-11-12T07:04:47.257Z,3.46
2022-11-12T07:09:50.291Z,3.31
2022-11-12T07:14:54.178Z,3.60
2022-11-12T07:20:00.821Z,3.58
2022-11-12T07:25:10.245Z,3.37
2022-11-12T07:30:13.203Z,3.58
2022-11-12T07:35:15.928Z,3.99
2022-11-12T07:40:18.722Z,4.01
2022-11-12T07:45:22.037Z,3.91
2022-11-12T07:50:29.807Z,3.84
2022-11-12T07:55:33.070Z,3.84
2022-11-12T08:00:36.271Z,3.85
2022-11-12T08:05:39.450Z,3.72
2022-11-12T08:10:43.180Z,3.97
2022-11-12T08:15:51.964Z,3.91
2022-11-12T08:20:55.643Z,4.02
2022-11-12T08:25:58.963Z,4.13
2022-11-12T08:31:03.189Z,4.64
2022-11-12T08:36:06.563Z,5.04
2022-11-12T08:41:09.789Z,4.76
2022-11-12T08:46:13.463Z,4.32
2022-11-12T08:51:16.861Z,4.52
2022-11-12T08:56:20.218Z,5.24
2022-11-12T09:01:23.796Z,5.57
2022-11-12T09:06:27.202Z,5.72
2022-11-12T09:11:30.666Z,5.52
2022-11-12T09:16:33.987Z,5.63
2022-11-12T09:21:37.445Z,6.35
2022-11-12T09:26:40.802Z,6.56
2022-11-12T09:31:44.089Z,6.70
2022-11-12T09:36:47.428Z,7.07
2022-11-12T09:41:50.798Z,7.09
2022-11-12T09:46:54.156Z,7.20
2022-11-12T09:51:57.721Z,7.29
2022-11-12T09:57:01.162Z,7.38
2022-11-12T10:02:05.783Z,6.66
2022-11-12T10:07:10.082Z,6.56
2022-11-12T10:12:31.296Z,6.86
2022-11-12T10:17:35.281Z,6.82
2022-11-12T10:22:38.651Z,6.76
2022-11-12T10:27:42.027Z,7.10
2022-11-12T10:32:45.620Z,6.78
2022-11-12T10:37:49.027Z,7.05
2022-11-12T10:42:52.616Z,7.46
2022-11-12T10:47:55.877Z,7.15
2022-11-12T10:52:59.637Z,7.55
2022-11-12T10:58:02.808Z,7.68
2022-11-12T11:03:06.063Z,8.04
2022-11-12T11:08:09.457Z,8.42
2022-11-12T11:13:13.605Z,8.23
2022-11-12T11:18:17.014Z,8.12
2022-11-12T11:23:20.393Z,7.46
2022-11-12T11:28:24.426Z,7.85
2022-11-12T11:33:29.494Z,8.08
2022-11-12T11:38:32.953Z,7.96
2022-11-12T11:43:36.503Z,8.32
2022-11-12T11:48:39.905Z,7.87
2022-11-12T11:53:43.227Z,7.97
2022-11-12T11:58:46.608Z,7.48
2022-11-12T12:03:50.368Z,7.95
2022-11-12T12:08:53.594Z,7.77
2022-11-12T12:13:57.165Z,7.92
2022-11-12T12:19:00.908Z,7.79
2022-11-12T12:24:04.119Z,7.64
2022-11-12T12:29:07.554Z,7.83
2022-11-12T12:34:11.008Z,7.70
2022-11-12T12:39:14.597Z,7.74
2022-11-12T12:44:18.125Z,7.78
2022-11-12T12:49:21.561Z,7.62
2022-11-12T12:54:25.148Z,7.76
2022-11-12T12:59:28.589Z,8.03
2022-11-12T13:04:32.189Z,7.80
2022-11-12T13:09:35.730Z,7.93
2022-11-12T13:14:39.254Z,8.01
2022-11-12T13:19:43.368Z,7.55
2022-11-12T13:24:47.107Z,7.74
2022-11-12T13:29:51.038Z,7.90
2022-11-12T13:34:54.637Z,8.02
2022-11-12T13:39:58.291Z,8.09
2022-11-12T13:45:02.030Z,8.22
2022-11-12T13:50:07.085Z,7.90
2022-11-12T13:55:10.554Z,7.71
2022-11-12T14:00:14.786Z,7.65
2022-11-12T14:05:18.237Z,7.50
2022-11-12T14:10:21.453Z,7.47
2022-11-12T14:15:24.438Z,7.52
2022-11-12T14:20:29.212Z,7.34
2022-11-12T14:25:32.730Z,7.05
2022-11-12T14:30:36.179Z,6.89
2022-11-12T14:35:39.463Z,6.76
2022-11-12T14:40:43.303Z,6.69
2022-11-12T14:45:46.377Z,6.54
2022-11-12T14:50:50.924Z,6.33
2022-11-12T14:55:54.699Z,6.25
2022-11-12T15:00:57.936Z,5.96
2022-11-12T15:06:01.426Z,5.93
2022-11-12T15:11:04.599Z,5.79
2022-11-12T15:16:08.149Z,5.56
2022-11-12T15:21:11.581Z,5.46
2022-11-12T15:26:15.021Z,5.40
2022-11-12T15:31:24.636Z,5.45
2022-11-12T15:36:31.839Z,5.34
2022-11-12T15:41:35.102Z,5.24
2022-11-12T15:46:43.463Z,5.09
2022-11-12T15:51:46.674Z,5.17
2022-11-12T15:56:49.792Z,5.23
2022-11-12T16:01:53.005Z,5.28
2022-11-12T16:06:56.424Z,5.38
2022-11-12T16:12:00.660Z,5.21
2022-11-12T16:17:03.853Z,5.31
2022-11-12T16:22:12.636Z,5.30
2022-11-12T16:27:15.855Z,5.04
2022-11-12T16:32:19.143Z,5.08
2022-11-12T16:37:22.286Z,5.27
2022-11-12T16:42:25.891Z,5.32
2022-11-12T16:47:29.603Z,5.17
2022-11-12T16:52:32.666Z,5.11
2022-11-12T16:57:36.173Z,4.96
2022-11-12T17:02:43.812Z,5.09
2022-11-12T17:07:50.265Z,4.85
2022-11-12T17:12:53.375Z,4.77
2022-11-12T17:17:56.865Z,4.77
2022-11-12T17:23:00.059Z,4.68
2022-11-12T17:28:03.155Z,4.76
2022-11-12T17:33:06.421Z,4.54
2022-11-12T17:38:09.520Z,4.47
2022-11-12T17:43:12.619Z,4.59
2022-11-12T17:48:15.861Z,4.47
2022-11-12T17:53:19.052Z,4.66
2022-11-12T17:58:22.139Z,4.51
2022-11-12T18:03:25.529Z,4.55
2022-11-12T18:08:28.855Z,4.65
2022-11-12T18:13:31.976Z,4.76
2022-11-12T18:18:35.088Z,4.61
2022-11-12T18:23:40.600Z,4.79
2022-11-12T18:28:43.695Z,4.68
2022-11-12T18:33:46.866Z,4.53
2022-11-12T18:38:50.763Z,4.42
2022-11-12T18:43:53.829Z,4.61
2022-11-12T18:48:56.948Z,4.64
2022-11-12T18:54:00.171Z,4.71
2022-11-12T18:59:03.298Z,4.86
2022-11-12T19:04:06.971Z,4.88
2022-11-12T19:09:11.848Z,4.94
2022-11-12T19:14:15.412Z,4.78
2022-11-12T19:19:18.672Z,4.75
2022-11-12T19:24:21.851Z,4.64
2022-11-12T19:29:25.372Z,4.82
2022-11-12T19:34:28.624Z,4.84
2022-11-12T19:39:31.826Z,4.83
2022-11-12T19:44:34.965Z,4.79
2022-11-12T19:49:38.307Z,4.83
2022-11-12T19:54:41.455Z,4.69
2022-11-12T19:59:44.657Z,4.78
2022-11-12T20:04:47.790Z,4.69
2022-11-12T20:09:50.891Z,4.75
2022-11-12T20:14:54.102Z,4.92
2022-11-12T20:19:57.177Z,4.82
2022-11-12T20:25:00.947Z,4.84
2022-11-12T20:30:04.054Z,4.92
2022-11-12T20:35:15.231Z,4.75
2022-11-12T20:40:22.540Z,4.85
2022-11-12T20:45:25.640Z,4.73
2022-11-12T20:50:28.757Z,4.80
2022-11-12T20:55:32.600Z,4.61
2022-11-12T21:00:35.728Z,4.59
2022-11-12T21:05:38.904Z,4.74
2022-11-12T21:10:42.188Z,4.78
2022-11-12T21:15:45.299Z,4.46
2022-11-12T21:20:52.578Z,4.60
2022-11-12T21:25:55.712Z,4.52
2022-11-12T21:30:58.864Z,4.34
2022-11-12T21:36:02.024Z,4.18
2022-11-12T21:41:05.176Z,3.92
2022-11-12T21:46:08.353Z,3.59
2022-11-12T21:51:11.580Z,3.76
2022-11-12T21:56:15.100Z,3.70
2022-11-12T22:01:19.886Z,3.87
2022-11-12T22:06:23.025Z,3.69
2022-11-12T22:11:27.715Z,3.80
2022-11-12T22:16:30.925Z,3.86
2022-11-12T22:21:38.627Z,3.74
2022-11-12T22:26:43.074Z,3.56
2022-11-12T22:31:46.196Z,3.52
2022-11-12T22:36:49.864Z,3.52
2022-11-12T22:41:52.935Z,3.68
2022-11-12T22:46:56.078Z,3.45
2022-11-12T22:51:59.211Z,3.70
2022-11-12T22:57:02.346Z,3.61
2022-11-12T23:02:07.829Z,3.74
2022-11-12T23:07:11.187Z,3.83
2022-11-12T23:12:14.305Z,3.73
2022-11-12T23:17:17.456Z,3.76
2022-11-12T23:22:20.881Z,3.52
2022-11-12T23:27:24.341Z,3.66
2022-11-12T23:32:27.400Z,3.56
2022-11-12T23:37:37.601Z,3.65
2022-11-12T23:42:40.718Z,3.59
2022-11-12T23:47:44.425Z,3.58
2022-11-12T23:52:47.537Z,3.58
2022-11-12T23:57:51.117Z,3.21
